createdAt,value
2018-06-19T00:00:31.657Z,18.87
2018-06-19T00:03:02.292Z,19.17
2018-06-19T00:05:32.487Z,21.90
2018-06-19T00:08:03.250Z,20.13
2018-06-19T00:10:34.141Z,20.93
2018-06-19T00:13:05.742Z,18.97
2018-06-19T00:15:37.131Z,16.33
2018-06-19T00:18:12.809Z,20.60
2018-06-19T00:20:43.375Z,18.40
2018-06-19T00:23:14.533Z,22.07
2018-06-19T00:25:44.976Z,20.70
2018-06-19T00:28:15.526Z,19.87
2018-06-19T00:30:45.921Z,20.70
2018-06-19T00:33:16.947Z,19.17
2018-06-19T00:35:47.410Z,23.57
2018-06-19T00:38:18.538Z,18.30
2018-06-19T00:40:49.775Z,19.00
2018-06-19T00:43:20.331Z,21.77
2018-06-19T00:45:51.095Z,20.80
2018-06-19T00:48:22.109Z,20.40
2018-06-19T00:50:52.496Z,17.23
2018-06-19T00:53:22.926Z,21.13
2018-06-19T00:55:53.510Z,21.07
2018-06-19T00:58:23.953Z,20.77
2018-06-19T01:00:54.375Z,19.57
2018-06-19T01:03:24.740Z,19.53
2018-06-19T01:05:55.610Z,20.27
2018-06-19T01:08:25.817Z,20.10
2018-06-19T01:10:56.798Z,18.93
2018-06-19T01:13:27.240Z,20.67
2018-06-19T01:15:57.570Z,20.83
2018-06-19T01:18:27.910Z,20.80
2018-06-19T01:20:58.286Z,19.90
2018-06-19T01:23:28.924Z,18.60
2018-06-19T01:26:00.205Z,18.03
2018-06-19T01:28:30.064Z,25.20
2018-06-19T01:31:00.345Z,24.10
2018-06-19T01:33:31.253Z,23.20
2018-06-19T01:36:01.817Z,19.50
2018-06-19T01:38:32.253Z,21.87
2018-06-19T01:41:02.688Z,18.87
2018-06-19T01:43:33.511Z,26.50
2018-06-19T01:46:03.987Z,27.73
2018-06-19T01:48:34.581Z,50.57
2018-06-19T01:51:05.364Z,25.53
2018-06-19T01:53:36.213Z,29.40
2018-06-19T01:56:06.723Z,24.07
2018-06-19T01:58:37.694Z,23.33
2018-06-19T02:01:08.038Z,23.40
2018-06-19T02:03:38.411Z,22.60
2018-06-19T02:06:08.770Z,22.13
2018-06-19T02:08:39.775Z,23.20
2018-06-19T02:11:10.303Z,23.60
2018-06-19T02:13:40.645Z,22.10
2018-06-19T02:16:10.907Z,19.80
2018-06-19T02:18:41.131Z,23.20
2018-06-19T02:21:11.620Z,19.93
2018-06-19T02:23:43.007Z,21.87
2018-06-19T02:26:13.263Z,21.53
2018-06-19T02:28:43.582Z,16.80
2018-06-19T02:31:13.788Z,16.70
2018-06-19T02:33:44.415Z,20.43
2018-06-19T02:36:14.776Z,17.67
2018-06-19T02:38:45.131Z,30.17
2018-06-19T02:41:17.242Z,19.90
2018-06-19T02:43:47.619Z,17.10
2018-06-19T02:46:17.821Z,23.23
2018-06-19T02:48:48.134Z,19.73
2018-06-19T02:51:18.523Z,23.30
2018-06-19T02:53:49.538Z,21.83
2018-06-19T02:56:20.338Z,20.10
2018-06-19T02:58:50.671Z,19.53
2018-06-19T03:01:21.071Z,18.53
2018-06-19T03:03:51.461Z,18.37
2018-06-19T03:06:21.723Z,21.30
2018-06-19T03:08:52.526Z,19.50
2018-06-19T03:11:22.905Z,15.10
2018-06-19T03:13:53.318Z,18.57
2018-06-19T03:16:23.512Z,16.43
2018-06-19T03:18:54.026Z,18.80
2018-06-19T03:21:24.103Z,15.07
2018-06-19T03:23:56.571Z,14.60
2018-06-19T03:26:26.782Z,16.70
2018-06-19T03:28:56.973Z,14.60
2018-06-19T03:31:27.227Z,14.43
2018-06-19T03:33:57.406Z,14.03
2018-06-19T03:36:28.729Z,12.07
2018-06-19T03:38:59.119Z,16.60
2018-06-19T03:41:29.734Z,12.77
2018-06-19T03:43:59.923Z,12.97
2018-06-19T03:46:30.344Z,13.40
2018-06-19T03:49:00.597Z,11.30
2018-06-19T03:51:31.039Z,13.00
2018-06-19T03:54:01.843Z,12.00
2018-06-19T03:56:32.791Z,15.57
2018-06-19T03:59:03.162Z,9.50
2018-06-19T04:01:33.618Z,12.43
2018-06-19T04:04:04.275Z,12.00
2018-06-19T04:06:34.823Z,10.40
2018-06-19T04:09:07.398Z,10.50
2018-06-19T04:11:37.986Z,9.90
2018-06-19T04:14:09.138Z,12.77
2018-06-19T04:16:39.857Z,8.53
2018-06-19T04:19:09.704Z,9.60
2018-06-19T04:21:40.377Z,10.23
2018-06-19T04:24:11.079Z,10.37
2018-06-19T04:26:42.079Z,11.13
2018-06-19T04:29:12.643Z,11.20
2018-06-19T04:31:42.982Z,10.03
2018-06-19T04:34:13.254Z,9.90
2018-06-19T04:36:43.899Z,7.90
2018-06-19T04:39:15.059Z,9.00
2018-06-19T04:41:48.101Z,9.80
2018-06-19T04:44:18.243Z,7.67
2018-06-19T04:46:48.471Z,7.20
2018-06-19T04:49:21.251Z,8.10
2018-06-19T04:51:51.811Z,6.03
2018-06-19T04:54:22.400Z,10.47
2018-06-19T04:56:52.798Z,7.30
2018-06-19T04:59:23.717Z,9.43
2018-06-19T05:01:55.165Z,8.33
2018-06-19T05:04:25.792Z,8.93
2018-06-19T05:06:56.113Z,10.23
2018-06-19T05:09:26.246Z,9.40
2018-06-19T05:11:57.402Z,7.67
2018-06-19T05:14:27.861Z,7.80
2018-06-19T05:16:58.231Z,10.97
2018-06-19T05:19:28.867Z,8.47
2018-06-19T05:21:59.363Z,8.67
2018-06-19T05:24:29.668Z,13.30
2018-06-19T05:27:00.344Z,8.07
2018-06-19T05:29:30.960Z,11.03
2018-06-19T05:32:01.661Z,13.30
2018-06-19T05:34:32.250Z,11.93
2018-06-19T05:37:02.425Z,12.23
2018-06-19T05:39:32.942Z,14.23
2018-06-19T05:42:03.860Z,10.83
2018-06-19T05:44:34.542Z,6.50
2018-06-19T05:47:05.009Z,8.60
2018-06-19T05:49:35.903Z,9.37
2018-06-19T05:52:06.562Z,9.93
2018-06-19T05:54:37.134Z,7.47
2018-06-19T05:57:07.832Z,8.20
2018-06-19T05:59:38.231Z,9.40
2018-06-19T06:02:08.634Z,10.60
2018-06-19T06:04:39.189Z,9.73
2018-06-19T06:07:09.478Z,11.87
2018-06-19T06:09:39.136Z,10.27
2018-06-19T06:12:11.065Z,6.90
2018-06-19T06:14:41.338Z,10.60
2018-06-19T06:17:11.872Z,8.57
2018-06-19T06:19:42.676Z,8.57
2018-06-19T06:22:13.227Z,10.50
2018-06-19T06:24:43.702Z,7.70
2018-06-19T06:27:14.674Z,10.20
2018-06-19T06:29:45.113Z,6.70
2018-06-19T06:32:15.719Z,15.60
2018-06-19T06:34:47.052Z,11.47
2018-06-19T06:37:17.556Z,7.87
2018-06-19T06:39:48.355Z,8.70
2018-06-19T06:42:20.266Z,11.83
2018-06-19T06:44:50.841Z,10.50
2018-06-19T06:47:21.117Z,12.73
2018-06-19T06:49:51.844Z,9.60
2018-06-19T06:52:22.672Z,16.07
2018-06-19T06:54:53.047Z,13.40
2018-06-19T06:57:23.774Z,12.77
2018-06-19T06:59:54.334Z,14.47
2018-06-19T07:02:24.902Z,10.70
2018-06-19T07:04:55.423Z,8.37
2018-06-19T07:07:25.907Z,9.77
2018-06-19T07:09:56.336Z,10.00
2018-06-19T07:12:26.822Z,9.17
2018-06-19T07:14:57.129Z,8.73
2018-06-19T07:17:27.458Z,10.63
2018-06-19T07:19:59.229Z,11.13
2018-06-19T07:22:29.626Z,14.30
2018-06-19T07:24:59.690Z,14.93
2018-06-19T07:27:30.530Z,11.40
2018-06-19T07:30:00.755Z,20.53
2018-06-19T07:32:31.027Z,14.67
2018-06-19T07:35:01.853Z,13.17
2018-06-19T07:37:32.488Z,11.60
2018-06-19T07:40:03.841Z,17.20
2018-06-19T07:42:34.430Z,14.40
2018-06-19T07:45:05.946Z,18.20
2018-06-19T07:47:35.933Z,12.77
2018-06-19T07:50:06.516Z,18.90
2018-06-19T07:52:37.105Z,15.70
2018-06-19T07:55:07.884Z,12.90
2018-06-19T07:57:38.218Z,17.10
2018-06-19T08:00:09.921Z,20.03
2018-06-19T08:02:40.607Z,19.13
2018-06-19T08:05:10.874Z,19.40
2018-06-19T08:07:41.525Z,17.77
2018-06-19T08:10:11.906Z,17.27
2018-06-19T08:12:42.670Z,16.87
2018-06-19T08:15:13.039Z,16.93
2018-06-19T08:17:43.812Z,20.20
2018-06-19T08:20:15.496Z,20.77
2018-06-19T08:22:46.063Z,15.43
2018-06-19T08:25:16.646Z,15.10
2018-06-19T08:27:47.322Z,17.10
2018-06-19T08:30:18.179Z,18.43
2018-06-19T08:32:48.530Z,20.70
2018-06-19T08:35:18.618Z,22.47
2018-06-19T08:37:49.028Z,22.70
2018-06-19T08:40:19.858Z,19.07
2018-06-19T08:42:50.247Z,20.90
2018-06-19T08:45:19.904Z,21.40
2018-06-19T08:47:50.439Z,21.40
2018-06-19T08:50:20.903Z,25.83
2018-06-19T08:52:51.390Z,16.27
2018-06-19T08:55:23.295Z,23.00
2018-06-19T08:57:53.773Z,22.63
2018-06-19T09:00:24.327Z,20.80
2018-06-19T09:02:55.366Z,24.93
2018-06-19T09:05:26.092Z,22.80
2018-06-19T09:07:57.096Z,22.93
2018-06-19T09:10:27.846Z,27.60
2018-06-19T09:12:58.886Z,27.27
2018-06-19T09:15:29.254Z,24.83
2018-06-19T09:17:59.940Z,28.33
2018-06-19T09:20:30.723Z,29.10
2018-06-19T09:23:01.244Z,37.63
2018-06-19T09:25:31.558Z,26.00
2018-06-19T09:28:01.756Z,35.10
2018-06-19T09:30:34.637Z,25.87
2018-06-19T09:33:05.054Z,29.73
2018-06-19T09:35:35.618Z,26.00
2018-06-19T09:38:06.251Z,32.63
2018-06-19T09:40:37.277Z,27.47
2018-06-19T09:43:08.067Z,26.13
2018-06-19T09:45:38.467Z,25.57
2018-06-19T09:48:08.705Z,25.07
2018-06-19T09:50:39.238Z,23.43
2018-06-19T09:53:09.912Z,30.37
2018-06-19T09:55:41.204Z,25.20
2018-06-19T09:58:12.199Z,24.80
2018-06-19T10:00:42.630Z,27.97
2018-06-19T10:03:13.402Z,31.77
2018-06-19T10:05:44.303Z,27.77
2018-06-19T10:08:14.855Z,27.30
2018-06-19T10:10:45.446Z,24.87
2018-06-19T10:13:16.077Z,31.40
2018-06-19T10:15:47.067Z,29.07
2018-06-19T10:18:17.419Z,31.67
2018-06-19T10:20:47.822Z,24.47
2018-06-19T10:23:18.592Z,29.03
2018-06-19T10:25:49.379Z,31.53
2018-06-19T10:28:19.858Z,22.50
2018-06-19T10:30:50.818Z,26.77
2018-06-19T10:33:21.349Z,31.47
2018-06-19T10:35:51.966Z,31.90
2018-06-19T10:38:22.380Z,27.40
2018-06-19T10:40:52.767Z,22.73
2018-06-19T10:43:23.305Z,28.43
2018-06-19T10:45:53.880Z,23.97
2018-06-19T10:48:24.043Z,24.10
2018-06-19T10:50:55.010Z,23.10
2018-06-19T10:53:24.964Z,21.30
2018-06-19T10:55:55.302Z,23.77
2018-06-19T10:58:25.755Z,21.97
2018-06-19T11:00:58.181Z,21.90
2018-06-19T11:03:28.671Z,22.90
2018-06-19T11:05:59.110Z,27.73
2018-06-19T11:08:29.651Z,23.77
2018-06-19T11:11:00.157Z,29.17
2018-06-19T11:13:30.677Z,31.50
2018-06-19T11:16:01.703Z,20.00
2018-06-19T11:18:32.027Z,20.50
2018-06-19T11:21:02.863Z,20.80
2018-06-19T11:23:33.077Z,23.50
2018-06-19T11:26:03.450Z,20.93
2018-06-19T11:28:33.881Z,23.33
2018-06-19T11:31:04.616Z,19.10
2018-06-19T11:33:35.182Z,21.33
2018-06-19T11:36:05.598Z,24.03
2018-06-19T11:38:36.042Z,20.00
2018-06-19T11:41:06.823Z,23.50
2018-06-19T11:43:37.364Z,21.27
2018-06-19T11:46:07.911Z,20.60
2018-06-19T11:48:37.909Z,22.67
2018-06-19T11:51:08.073Z,19.67
2018-06-19T11:53:38.462Z,21.07
2018-06-19T11:56:12.122Z,23.17
2018-06-19T11:58:43.210Z,21.80
2018-06-19T12:01:13.635Z,22.10
2018-06-19T12:03:45.286Z,24.97
2018-06-19T12:06:17.057Z,26.23
2018-06-19T12:08:48.778Z,25.77
2018-06-19T12:11:21.025Z,26.63
2018-06-19T12:13:51.571Z,25.50
2018-06-19T12:16:21.961Z,28.17
2018-06-19T12:18:53.035Z,26.27
2018-06-19T12:21:23.690Z,32.10
2018-06-19T12:23:54.489Z,32.83
2018-06-19T12:26:24.542Z,32.00
2018-06-19T12:28:54.698Z,33.13
2018-06-19T12:31:25.651Z,28.23
2018-06-19T12:33:56.179Z,30.33
2018-06-19T12:36:26.548Z,33.43
2018-06-19T12:38:57.892Z,31.83
2018-06-19T12:41:39.143Z,34.83
2018-06-19T12:44:10.116Z,34.77
2018-06-19T12:49:06.085Z,32.60
2018-06-19T12:51:48.035Z,29.33
2018-06-19T12:54:37.236Z,34.17
2018-06-19T12:57:07.666Z,24.97
2018-06-19T12:59:38.066Z,27.90
2018-06-19T13:02:08.945Z,29.37
2018-06-19T13:04:44.081Z,34.07
2018-06-19T13:07:14.458Z,35.60
2018-06-19T13:09:45.208Z,31.97
2018-06-19T13:14:28.496Z,31.10
2018-06-19T13:17:03.826Z,31.00
2018-06-19T13:19:45.031Z,30.07
2018-06-19T13:22:15.304Z,29.83
2018-06-19T13:24:46.010Z,28.30
2018-06-19T13:27:16.446Z,29.50
2018-06-19T13:29:59.085Z,31.80
2018-06-19T13:32:29.906Z,33.10
2018-06-19T13:34:59.912Z,33.40
2018-06-19T13:37:30.160Z,29.07
2018-06-19T13:41:15.477Z,31.67
2018-06-19T13:43:57.215Z,29.53
2018-06-19T13:46:28.370Z,30.47
2018-06-19T13:48:58.613Z,31.93
2018-06-19T13:51:28.918Z,32.43
2018-06-19T13:54:00.029Z,29.67
2018-06-19T13:57:46.399Z,29.83
2018-06-19T14:00:21.455Z,27.20
2018-06-19T14:02:52.082Z,27.43
2018-06-19T14:05:22.637Z,29.20
2018-06-19T14:08:07.798Z,26.77
2018-06-19T14:10:49.091Z,25.77
2018-06-19T14:13:19.700Z,26.77
2018-06-19T14:15:51.417Z,23.87
2018-06-19T14:18:22.397Z,23.30
2018-06-19T14:20:53.345Z,24.43
2018-06-19T14:23:24.930Z,27.27
2018-06-19T14:25:55.514Z,28.10
2018-06-19T14:28:25.977Z,32.83
2018-06-19T14:30:56.471Z,28.33
2018-06-19T14:33:27.696Z,32.83
2018-06-19T14:35:58.736Z,30.80
2018-06-19T14:38:29.288Z,34.37
2018-06-19T14:41:00.519Z,29.90
2018-06-19T14:43:32.200Z,29.50
2018-06-19T14:46:03.450Z,28.00
2018-06-19T14:48:34.078Z,30.67
2018-06-19T14:51:04.994Z,27.67
2018-06-19T14:53:35.932Z,28.47
2018-06-19T14:56:07.566Z,35.27
2018-06-19T14:58:38.012Z,28.83
2018-06-19T15:01:09.328Z,28.13
2018-06-19T15:03:39.966Z,30.93
2018-06-19T15:06:10.686Z,31.73
2018-06-19T15:08:41.178Z,27.23
2018-06-19T15:11:11.919Z,29.77
2018-06-19T15:13:42.129Z,30.40
2018-06-19T15:16:12.982Z,24.90
2018-06-19T15:18:44.907Z,26.10
2018-06-19T15:21:15.502Z,22.27
2018-06-19T15:23:46.098Z,23.50
2018-06-19T15:26:16.591Z,22.80
2018-06-19T15:28:47.177Z,26.57
2018-06-19T15:31:17.601Z,22.03
2018-06-19T15:33:48.248Z,31.23
2018-06-19T15:36:18.680Z,28.10
2018-06-19T15:38:49.304Z,28.47
2018-06-19T15:41:19.670Z,21.33
2018-06-19T15:43:49.882Z,24.90
2018-06-19T15:46:20.579Z,24.60
2018-06-19T15:48:51.374Z,26.47
2018-06-19T15:51:21.778Z,25.90
2018-06-19T15:53:53.833Z,23.50
2018-06-19T15:56:24.784Z,25.37
2018-06-19T15:58:55.455Z,22.00
2018-06-19T16:01:25.944Z,22.30
2018-06-19T16:03:56.380Z,24.43
2018-06-19T16:06:26.942Z,23.00
2018-06-19T16:08:57.827Z,26.70
2018-06-19T16:11:28.968Z,25.90
2018-06-19T16:13:59.659Z,27.20
2018-06-19T16:16:30.533Z,25.10
2018-06-19T16:19:01.390Z,24.27
2018-06-19T16:21:32.382Z,25.27
2018-06-19T16:24:02.737Z,25.50
2018-06-19T16:26:33.308Z,21.63
2018-06-19T16:29:04.824Z,22.20
2018-06-19T16:31:35.326Z,22.07
2018-06-19T16:34:06.229Z,21.30
2018-06-19T16:36:36.746Z,20.70
2018-06-19T16:39:10.057Z,23.00
2018-06-19T16:41:40.923Z,25.87
2018-06-19T16:44:11.133Z,20.60
2018-06-19T16:46:41.875Z,23.17
2018-06-19T16:49:12.045Z,23.77
2018-06-19T16:51:42.339Z,22.80
2018-06-19T16:54:13.083Z,19.97
2018-06-19T16:56:44.145Z,30.70
2018-06-19T16:59:14.393Z,23.13
2018-06-19T17:01:45.366Z,24.53
2018-06-19T17:04:15.818Z,22.93
2018-06-19T17:06:46.869Z,24.50
2018-06-19T17:09:17.859Z,17.83
2018-06-19T17:11:48.387Z,21.27
2018-06-19T17:14:19.414Z,19.27
2018-06-19T17:16:49.822Z,19.87
2018-06-19T17:19:20.121Z,18.87
2018-06-19T17:21:51.540Z,18.90
2018-06-19T17:24:21.818Z,22.03
2018-06-19T17:26:52.655Z,16.00
2018-06-19T17:29:23.442Z,20.87
2018-06-19T17:31:53.994Z,18.57
2018-06-19T17:34:24.718Z,18.23
2018-06-19T17:36:55.167Z,18.57
2018-06-19T17:39:25.761Z,17.53
2018-06-19T17:41:56.264Z,13.60
2018-06-19T17:44:27.728Z,15.07
2018-06-19T17:49:36.727Z,19.20
2018-06-19T17:52:07.376Z,14.60
2018-06-19T17:54:37.900Z,15.10
2018-06-19T17:57:09.156Z,14.50
2018-06-19T17:59:39.606Z,15.17
2018-06-19T18:02:10.362Z,14.17
2018-06-19T18:04:41.786Z,14.10
2018-06-19T18:07:12.797Z,13.37
2018-06-19T18:09:43.394Z,11.83
2018-06-19T18:12:13.713Z,14.10
2018-06-19T18:14:44.054Z,13.70
2018-06-19T18:17:15.099Z,9.60
2018-06-19T18:19:46.376Z,9.53
2018-06-19T18:22:17.249Z,12.00
2018-06-19T18:24:48.230Z,10.40
2018-06-19T18:27:18.746Z,10.70
2018-06-19T18:29:49.546Z,12.50
2018-06-19T18:32:20.053Z,7.53
2018-06-19T18:34:50.735Z,11.87
2018-06-19T18:37:21.270Z,12.60
2018-06-19T18:39:52.044Z,12.10
2018-06-19T18:42:22.526Z,11.17
2018-06-19T18:44:53.366Z,13.67
2018-06-19T18:47:24.275Z,15.57
2018-06-19T18:49:55.468Z,13.40
2018-06-19T18:52:25.197Z,13.83
2018-06-19T18:54:55.816Z,11.70
2018-06-19T18:57:26.875Z,13.73
2018-06-19T18:59:57.201Z,12.67
2018-06-19T19:02:28.353Z,13.73
2018-06-19T19:05:00.127Z,11.80
2018-06-19T19:07:30.823Z,13.53
2018-06-19T19:10:07.582Z,12.80
2018-06-19T19:12:37.514Z,10.93
2018-06-19T19:15:15.117Z,11.03
2018-06-19T19:17:50.731Z,14.23
2018-06-19T19:20:21.214Z,12.47
2018-06-19T19:22:52.146Z,12.07
2018-06-19T19:25:22.370Z,11.30
2018-06-19T19:27:58.386Z,10.67
2018-06-19T19:30:29.138Z,10.20
2018-06-19T19:33:01.875Z,8.13
2018-06-19T19:35:32.302Z,7.43
2018-06-19T19:38:10.310Z,12.43
2018-06-19T19:40:40.826Z,10.53
2018-06-19T19:43:11.415Z,11.63
2018-06-19T19:45:43.107Z,9.00
2018-06-19T19:48:19.002Z,14.10
2018-06-19T19:50:49.363Z,9.13
2018-06-19T19:53:20.967Z,13.03
2018-06-19T19:55:57.380Z,11.90
2018-06-19T19:58:35.654Z,13.03
2018-06-19T20:01:06.089Z,12.73
2018-06-19T20:03:36.466Z,11.50
2018-06-19T20:06:06.952Z,13.17
2018-06-19T20:08:38.964Z,9.17
2018-06-19T20:11:10.424Z,11.27
2018-06-19T20:13:41.229Z,9.47
2018-06-19T20:16:11.859Z,11.43
2018-06-19T20:18:42.206Z,13.20
2018-06-19T20:21:13.129Z,11.07
2018-06-19T20:23:43.693Z,10.97
2018-06-19T20:26:13.994Z,9.30
2018-06-19T20:28:45.168Z,12.13
2018-06-19T20:31:15.690Z,12.57
2018-06-19T20:33:46.693Z,15.33
2018-06-19T20:36:17.039Z,13.30
2018-06-19T20:38:47.906Z,11.13
2018-06-19T20:41:18.866Z,16.73
2018-06-19T20:43:49.633Z,12.90
2018-06-19T20:46:19.986Z,14.30
2018-06-19T20:48:50.311Z,12.40
2018-06-19T20:51:20.663Z,13.93
2018-06-19T20:53:51.141Z,15.03
2018-06-19T20:56:21.870Z,19.07
2018-06-19T20:58:52.345Z,12.67
2018-06-19T21:01:23.411Z,11.90
2018-06-19T21:03:53.994Z,13.97
2018-06-19T21:06:24.508Z,13.07
2018-06-19T21:08:55.434Z,12.03
2018-06-19T21:11:25.994Z,11.07
2018-06-19T21:13:56.449Z,11.90
2018-06-19T21:16:26.871Z,14.60
2018-06-19T21:18:57.387Z,11.80
2018-06-19T21:21:27.818Z,12.80
2018-06-19T21:23:58.575Z,11.93
2018-06-19T21:26:29.665Z,13.80
2018-06-19T21:29:00.021Z,13.13
2018-06-19T21:31:31.867Z,12.03
2018-06-19T21:34:03.252Z,11.77
2018-06-19T21:36:33.443Z,11.93
2018-06-19T21:39:04.367Z,12.00
2018-06-19T21:41:34.599Z,9.23
2018-06-19T21:44:05.468Z,9.80
2018-06-19T21:46:38.814Z,10.77
2018-06-19T21:49:11.671Z,12.43
2018-06-19T21:51:42.526Z,11.33
2018-06-19T21:54:13.543Z,11.30
2018-06-19T21:56:44.119Z,10.20
2018-06-19T21:59:14.651Z,11.53
2018-06-19T22:01:45.039Z,13.90
2018-06-19T22:04:15.587Z,14.53
2018-06-19T22:06:45.913Z,14.70
2018-06-19T22:09:16.533Z,14.53
2018-06-19T22:11:47.235Z,17.60
2018-06-19T22:14:18.151Z,14.07
2018-06-19T22:16:48.683Z,11.63
2018-06-19T22:19:19.193Z,11.97
2018-06-19T22:21:49.894Z,11.50
2018-06-19T22:24:20.878Z,15.87
2018-06-19T22:26:51.120Z,14.40
2018-06-19T22:29:21.673Z,12.70
2018-06-19T22:31:52.135Z,13.20
2018-06-19T22:34:23.314Z,14.90
2018-06-19T22:36:54.696Z,16.03
2018-06-19T22:39:24.547Z,13.40
2018-06-19T22:41:55.122Z,15.10
2018-06-19T22:44:25.506Z,13.50
2018-06-19T22:46:56.130Z,13.50
2018-06-19T22:49:26.665Z,14.13
2018-06-19T22:51:57.649Z,12.40
2018-06-19T22:54:28.011Z,12.83
2018-06-19T22:56:58.041Z,12.00
2018-06-19T22:59:28.706Z,14.00
2018-06-19T23:01:59.199Z,15.73
2018-06-19T23:04:29.821Z,13.70
2018-06-19T23:07:02.049Z,14.53
2018-06-19T23:09:32.813Z,16.40
2018-06-19T23:12:04.243Z,14.37
2018-06-19T23:14:34.626Z,15.70
2018-06-19T23:17:05.433Z,15.70
2018-06-19T23:19:35.966Z,12.40
2018-06-19T23:22:06.249Z,15.90
2018-06-19T23:24:37.315Z,18.07
2018-06-19T23:27:08.122Z,12.97
2018-06-19T23:29:38.804Z,14.77
2018-06-19T23:32:09.183Z,13.93
2018-06-19T23:34:39.564Z,15.90
2018-06-19T23:37:10.254Z,18.63
2018-06-19T23:39:40.904Z,19.40
2018-06-19T23:42:11.162Z,17.60
2018-06-19T23:44:41.676Z,17.50
2018-06-19T23:47:12.424Z,17.00
2018-06-19T23:49:44.478Z,15.80
2018-06-19T23:52:14.744Z,13.20
2018-06-19T23:54:45.306Z,14.43
2018-06-19T23:57:15.721Z,17.33
2018-06-19T23:59:46.158Z,17.97
